Time;durP1;ratioP1;P1;durP2;ratioP2;P2;SDS_P1;SDS_P2;PMS_P1;PMS_P2;Temp;Humidity;BMP_temperature;BMP_pressure;BME280_temperature;BME280_humidity;BME280_pressure;Samples;Min_cycle;Max_cycle;Signal;HPM_P1;HPM_P2
2021/11/16 00:01:25;;;;;;;16.67;9.20;;;;;;;;;;4915483;29;20434;-50
2021/11/16 00:03:52;;;;;;;20.90;9.75;;;16.50;79.90;;;;;;4915566;29;20032;-49
2021/11/16 00:06:18;;;;;;;18.38;8.98;;;;;;;;;;4918667;29;20021;-51
2021/11/16 00:08:44;;;;;;;16.42;9.05;;;;;;;;;;4918889;29;20506;-48
2021/11/16 00:11:11;;;;;;;17.48;9.20;;;;;;;;;;4918906;29;20392;-49
2021/11/16 00:13:37;;;;;;;15.48;9.35;;;;;;;;;;4919087;29;20047;-50
2021/11/16 00:16:03;;;;;;;17.58;9.55;;;16.40;78.20;;;;;;4918802;29;20411;-50
2021/11/16 00:18:30;;;;;;;18.67;9.88;;;;;;;;;;4919020;29;20028;-49
2021/11/16 00:20:57;;;;;;;14.77;8.98;;;;;;;;;;4919091;29;20055;-49
2021/11/16 00:23:24;;;;;;;16.52;9.27;;;;;;;;;;4918680;29;20036;-51
2021/11/16 00:25:53;;;;;;;16.60;8.82;;;16.40;80.30;;;;;;4918644;29;20468;-49
2021/11/16 00:28:20;;;;;;;17.25;9.20;;;;;;;;;;4918581;29;20028;-50
2021/11/16 00:30:46;;;;;;;18.02;10.00;;;;;;;;;;4918676;29;20036;-48
2021/11/16 00:33:12;;;;;;;17.40;9.77;;;;;;;;;;4918602;29;20085;-50
2021/11/16 00:35:38;;;;;;;17.08;9.30;;;;;;;;;;4918374;29;20609;-50
2021/11/16 00:38:07;;;;;;;19.45;9.50;;;16.30;80.60;;;;;;4918567;29;20067;-51
2021/11/16 00:40:33;;;;;;;19.23;10.43;;;;;;;;;;4918688;29;20061;-50
2021/11/16 00:42:59;;;;;;;18.88;9.23;;;;;;;;;;4918560;29;20054;-50
2021/11/16 00:45:26;;;;;;;16.65;9.63;;;;;;;;;;4918470;29;20432;-52
2021/11/16 00:47:52;;;;;;;16.83;9.95;;;;;;;;;;4918111;29;20483;-48
2021/11/16 00:50:20;;;;;;;16.85;9.10;;;;;;;;;;4918144;29;20044;-50
2021/11/16 00:52:46;;;;;;;15.93;9.18;;;;;;;;;;4918048;29;20028;-50
2021/11/16 00:55:13;;;;;;;15.82;9.20;;;16.30;78.40;;;;;;4918390;29;20463;-49
2021/11/16 00:57:39;;;;;;;15.77;9.18;;;;;;;;;;4918260;29;20024;-48
2021/11/16 01:00:07;;;;;;;17.13;9.98;;;16.30;79.90;;;;;;4918060;29;20111;-48
2021/11/16 01:02:34;;;;;;;15.93;8.95;;;;;;;;;;4917766;29;20028;-49
2021/11/16 01:05:00;;;;;;;18.77;9.63;;;;;;;;;;4918231;29;20412;-49
2021/11/16 01:07:26;;;;;;;18.17;9.32;;;;;;;;;;4917945;29;20032;-49
2021/11/16 01:09:52;;;;;;;16.17;9.35;;;;;;;;;;4917694;29;20043;-51
2021/11/16 01:12:18;;;;;;;21.63;10.52;;;;;;;;;;4917771;29;20052;-49
2021/11/16 01:14:45;;;;;;;20.95;11.07;;;16.20;81.70;;;;;;4918025;29;20126;-49
2021/11/16 01:17:13;;;;;;;16.75;9.77;;;16.20;80.70;;;;;;4917829;29;20084;-50
2021/11/16 01:19:39;;;;;;;17.50;9.88;;;;;;;;;;4917933;29;20029;-49
2021/11/16 01:22:06;;;;;;;18.40;10.45;;;;;;;;;;4917729;29;20032;-47
2021/11/16 01:24:32;;;;;;;17.00;9.35;;;;;;;;;;4917823;29;20050;-50
2021/11/16 01:26:58;;;;;;;19.67;9.80;;;;;;;;;;4917778;29;20028;-48
2021/11/16 01:29:24;;;;;;;18.17;9.77;;;;;;;;;;4917484;29;20032;-48
2021/11/16 01:31:54;;;;;;;19.85;10.65;;;;;;;;;;4917743;29;20032;-49
2021/11/16 01:34:26;;;;;;;17.63;9.57;;;;;;;;;;4917772;29;20084;-48
2021/11/16 01:36:53;;;;;;;17.55;10.43;;;;;;;;;;4917385;29;20395;-49
2021/11/16 01:39:18;;;;;;;19.65;10.30;;;16.20;97.30;;;;;;4917361;29;20035;-48
2021/11/16 01:41:44;;;;;;;18.77;10.45;;;16.20;96.60;;;;;;4917473;29;20020;-50
2021/11/16 01:44:10;;;;;;;17.73;9.90;;;16.20;95.90;;;;;;4917538;29;20407;-49
2021/11/16 01:46:36;;;;;;;19.27;10.43;;;16.20;70.40;;;;;;4917752;29;20016;-48
2021/11/16 01:49:03;;;;;;;17.90;10.57;;;16.00;95.60;;;;;;4917045;29;20099;-49
2021/11/16 01:51:29;;;;;;;17.55;10.35;;;16.10;95.60;;;;;;4917462;29;20032;-51
2021/11/16 01:54:01;;;;;;;18.00;10.60;;;16.30;95.30;;;;;;4917012;29;20032;-49
2021/11/16 01:56:29;;;;;;;17.45;10.35;;;16.10;69.60;;;;;;4917053;29;20024;-49
2021/11/16 01:58:58;;;;;;;17.35;9.85;;;16.10;94.80;;;;;;4917203;29;20162;-49
2021/11/16 02:01:23;;;;;;;19.65;10.15;;;16.10;94.80;;;;;;4916927;29;20013;-48
2021/11/16 02:03:49;;;;;;;21.45;10.80;;;15.80;95.00;;;;;;4916742;29;20039;-48
2021/11/16 02:06:26;;;;;;;19.63;10.90;;;16.70;69.20;;;;;;4916828;29;20108;-50
2021/11/16 02:08:54;;;;;;;18.75;10.20;;;15.80;94.60;;;;;;4916966;29;20447;-49
2021/11/16 02:11:20;;;;;;;17.38;10.45;;;16.00;68.80;;;;;;4916565;29;20407;-49
2021/11/16 02:13:46;;;;;;;18.17;10.63;;;16.00;94.60;;;;;;4916921;29;20383;-50
2021/11/16 02:16:12;;;;;;;16.27;9.27;;;16.10;94.60;;;;;;4916783;29;20024;-48
2021/11/16 02:18:38;;;;;;;19.90;10.77;;;16.10;68.80;;;;;;4916895;29;20039;-48
2021/11/16 02:21:05;;;;;;;16.35;9.77;;;16.10;94.70;;;;;;4916451;29;20479;-48
2021/11/16 02:23:31;;;;;;;16.73;9.73;;;16.30;69.00;;;;;;4916848;29;20111;-49
2021/11/16 02:25:57;;;;;;;18.25;10.32;;;16.00;95.00;;;;;;4916764;29;20024;-49
2021/11/16 02:28:22;;;;;;;18.48;10.27;;;15.90;68.50;;;;;;4915971;29;20036;-48
2021/11/16 02:30:49;;;;;;;18.13;10.30;;;16.00;94.50;;;;;;4916380;29;20068;-48
2021/11/16 02:33:16;;;;;;;18.48;10.57;;;16.00;94.60;;;;;;4916665;29;20423;-50
2021/11/16 02:35:43;;;;;;;15.57;9.95;;;15.90;68.60;;;;;;4916429;29;20036;-50
2021/11/16 02:38:10;;;;;;;18.75;10.38;;;16.00;94.50;;;;;;4916528;29;20032;-50
2021/11/16 02:40:36;;;;;;;16.48;10.27;;;16.00;68.40;;;;;;4916298;29;20110;-48
2021/11/16 02:43:02;;;;;;;19.73;11.43;;;15.80;94.80;;;;;;4916476;29;20028;-49
2021/11/16 02:45:28;;;;;;;19.10;10.57;;;15.90;68.40;;;;;;4916590;29;20058;-47
2021/11/16 02:47:54;;;;;;;18.42;10.07;;;15.80;94.50;;;;;;4916269;29;20128;-47
2021/11/16 02:50:20;;;;;;;17.48;10.13;;;16.00;94.60;;;;;;4916329;29;20036;-48
2021/11/16 02:52:46;;;;;;;15.10;9.48;;;15.90;68.80;;;;;;4899156;29;20020;-48
2021/11/16 02:55:12;;;;;;;16.45;10.25;;;16.00;94.60;;;;;;4916282;29;20066;-47
2021/11/16 02:57:38;;;;;;;17.73;10.48;;;15.90;68.80;;;;;;4916370;29;20024;-49
2021/11/16 03:00:07;;;;;;;15.48;9.88;;;16.00;94.60;;;;;;4915992;29;20028;-47
2021/11/16 03:02:33;;;;;;;14.48;9.27;;;15.80;67.50;;;;;;4916252;29;20024;-47
2021/11/16 03:04:58;;;;;;;16.05;10.07;;;15.90;94.70;;;;;;4916278;29;20035;-47
2021/11/16 03:07:33;;;;;;;16.08;9.60;;;16.00;94.70;;;;;;4916258;29;20491;-48
2021/11/16 03:09:59;;;;;;;16.30;10.60;;;15.90;95.10;;;;;;4915854;29;20043;-46
2021/11/16 03:12:29;;;;;;;16.17;9.85;;;15.90;94.80;;;;;;4915745;29;20036;-47
2021/11/16 03:14:56;;;;;;;19.05;10.18;;;15.90;69.20;;;;;;4916230;29;20040;-48
2021/11/16 03:17:23;;;;;;;15.75;9.50;;;15.80;95.10;;;;;;4915838;29;20476;-47
2021/11/16 03:19:49;;;;;;;18.83;10.43;;;15.90;69.00;;;;;;4916142;29;20028;-46
2021/11/16 03:22:15;;;;;;;14.15;9.05;;;15.90;94.60;;;;;;4915731;29;20031;-46
2021/11/16 03:24:42;;;;;;;16.50;10.05;;;16.80;70.10;;;;;;4916216;29;20024;-47
2021/11/16 03:27:11;;;;;;;15.40;9.65;;;15.70;95.20;;;;;;4915997;29;20024;-47
2021/11/16 03:29:43;;;;;;;15.32;8.93;;;15.90;69.30;;;;;;4915983;29;20453;-48
2021/11/16 03:32:12;;;;;;;18.95;10.52;;;15.80;95.30;;;;;;4916013;29;20400;-46
2021/11/16 03:34:41;;;;;;;15.75;10.15;;;15.90;69.40;;;;;;4915716;29;20024;-47
2021/11/16 03:37:07;;;;;;;14.95;9.48;;;15.80;95.00;;;;;;4915675;29;20031;-47
2021/11/16 03:39:32;;;;;;;17.40;9.98;;;15.90;95.10;;;;;;4918192;29;20032;-47
2021/11/16 03:41:59;;;;;;;14.52;8.80;;;15.70;69.20;;;;;;4919692;29;20028;-47
2021/11/16 03:44:26;;;;;;;16.45;10.18;;;15.80;95.00;;;;;;4919240;29;20483;-47
2021/11/16 03:46:52;;;;;;;16.67;9.82;;;15.70;69.20;;;;;;4919278;29;20559;-47
2021/11/16 03:49:17;;;;;;;16.63;10.13;;;15.90;95.30;;;;;;4919111;29;20058;-47
2021/11/16 03:51:45;;;;;;;16.63;9.98;;;15.80;69.30;;;;;;4919256;29;20428;-47
2021/11/16 03:54:11;;;;;;;14.95;9.73;;;15.80;95.30;;;;;;4919461;29;20043;-46
2021/11/16 03:56:37;;;;;;;17.42;10.05;;;15.90;95.20;;;;;;4919467;29;20034;-47
2021/11/16 03:59:03;;;;;;;14.50;8.98;;;15.70;69.30;;;;;;4919296;29;20103;-47
2021/11/16 04:01:29;;;;;;;15.95;10.23;;;15.80;95.10;;;;;;4902056;29;20028;-48
2021/11/16 04:03:56;;;;;;;16.60;9.80;;;15.60;69.20;;;;;;4919340;29;20035;-48
2021/11/16 04:06:23;;;;;;;18.27;9.73;;;15.60;95.30;;;;;;4919214;29;20056;-48
2021/11/16 04:08:48;;;;;;;16.70;9.88;;;15.70;69.60;;;;;;4919214;29;20024;-48
2021/11/16 04:11:14;;;;;;;15.00;9.98;;;15.60;95.10;;;;;;4918840;29;20407;-46
2021/11/16 04:13:40;;;;;;;17.00;9.65;;;15.80;95.30;;;;;;4918876;29;20020;-48
2021/11/16 04:16:06;;;;;;;16.98;9.82;;;16.00;95.80;;;;;;4919175;29;20024;-47
2021/11/16 04:18:32;;;;;;;16.00;10.45;;;15.70;95.10;;;;;;4918837;29;20433;-46
2021/11/16 04:20:58;;;;;;;15.95;9.70;;;15.70;69.50;;;;;;4918852;29;20051;-47
2021/11/16 04:23:25;;;;;;;15.35;9.93;;;15.70;95.30;;;;;;4918968;29;20068;-47
2021/11/16 04:25:52;;;;;;;14.63;9.88;;;15.60;69.40;;;;;;4918977;29;20024;-47
2021/11/16 04:28:18;;;;;;;16.98;9.90;;;15.70;95.40;;;;;;4918753;29;20051;-46
2021/11/16 04:30:45;;;;;;;15.55;9.70;;;15.80;95.50;;;;;;4918487;29;20479;-47
2021/11/16 04:33:12;;;;;;;15.95;9.80;;;15.70;69.90;;;;;;4918568;29;20028;-47
2021/11/16 04:35:38;;;;;;;18.17;10.27;;;15.70;95.60;;;;;;4918507;29;20362;-47
2021/11/16 04:38:06;;;;;;;15.73;9.38;;;15.80;70.10;;;;;;4918558;29;20031;-47
2021/11/16 04:40:38;;;;;;;16.75;9.38;;;15.70;95.70;;;;;;4918358;29;20483;-47
2021/11/16 04:43:08;;;;;;;15.73;9.57;;;15.70;96.00;;;;;;4918715;29;20076;-47
2021/11/16 04:45:34;;;;;;;19.10;10.38;;;15.70;96.20;;;;;;4918285;29;20063;-48
2021/11/16 04:48:05;;;;;;;13.13;9.20;;;15.40;96.10;;;;;;4918579;29;20108;-48
2021/11/16 04:53:38;;;;;;;14.38;8.98;;;15.70;91.20;;;;;;4918269;29;20047;-47
2021/11/16 05:04:40;;;;;;;14.35;8.70;;;15.60;96.80;;;;;;4897117;29;20133;-48
2021/11/16 05:07:16;;;;;;;15.85;9.05;;;15.60;97.10;;;;;;4909415;29;20103;-47
2021/11/16 05:09:45;;;;;;;14.07;9.20;;;15.70;97.20;;;;;;4917666;29;20123;-47
2021/11/16 05:12:11;;;;;;;15.13;10.10;;;15.60;97.50;;;;;;4917758;29;20080;-49
2021/11/16 05:14:37;;;;;;;16.48;9.75;;;15.60;97.50;;;;;;4917766;29;20060;-47
2021/11/16 05:17:03;;;;;;;18.38;10.10;;;15.70;97.70;;;;;;4917778;29;20028;-47
2021/11/16 05:19:29;;;;;;;15.80;9.77;;;;;;;;;;4917962;29;20539;-47
2021/11/16 05:21:54;;;;;;;15.05;9.82;;;15.40;95.90;;;;;;4917898;29;20540;-47
2021/11/16 05:24:24;;;;;;;14.25;9.45;;;15.50;97.80;;;;;;4918151;29;20028;-47
2021/11/16 05:26:50;;;;;;;14.23;9.15;;;;;;;;;;4917554;29;20020;-46
2021/11/16 05:29:16;;;;;;;15.20;9.65;;;;;;;;;;4917430;29;20038;-48
2021/11/16 05:31:42;;;;;;;15.45;9.13;;;;;;;;;;4917652;29;20032;-47
2021/11/16 05:34:08;;;;;;;14.90;9.18;;;;;;;;;;4917788;29;20080;-47
2021/11/16 05:36:34;;;;;;;15.63;9.45;;;;;;;;;;4917323;29;20479;-47
2021/11/16 05:39:00;;;;;;;14.98;9.60;;;;;;;;;;4917286;29;20024;-47
2021/11/16 05:41:26;;;;;;;14.63;8.90;;;;;;;;;;4917315;29;20035;-47
2021/11/16 05:43:52;;;;;;;16.00;9.77;;;;;;;;;;4917226;29;20099;-46
2021/11/16 05:46:23;;;;;;;18.00;10.15;;;15.40;76.80;;;;;;4917512;29;20539;-47
2021/11/16 05:48:51;;;;;;;17.45;9.77;;;15.50;77.00;;;;;;4917180;29;20479;-48
2021/11/16 05:51:19;;;;;;;15.73;9.45;;;15.50;76.80;;;;;;4917171;29;20032;-46
2021/11/16 05:53:51;;;;;;;16.35;10.23;;;;;;;;;;4917285;29;20028;-47
2021/11/16 05:56:19;;;;;;;17.80;10.02;;;;;;;;;;4917151;29;20111;-48
2021/11/16 05:58:45;;;;;;;15.98;9.75;;;;;;;;;;4916960;29;20051;-46
2021/11/16 06:01:11;;;;;;;15.32;9.10;;;;;;;;;;4900042;29;20044;-47
2021/11/16 06:03:37;;;;;;;14.57;9.38;;;;;;;;;;4916005;29;20032;-47
2021/11/16 06:06:03;;;;;;;15.73;9.77;;;;;;;;;;4916905;29;20024;-47
2021/11/16 06:08:29;;;;;;;17.92;9.60;;;;;;;;;;4916965;29;20050;-48
2021/11/16 06:10:56;;;;;;;16.33;9.82;;;15.50;77.70;;;;;;4916751;29;20486;-47
2021/11/16 06:13:23;;;;;;;16.25;9.32;;;;;;;;;;4916866;29;20024;-47
2021/11/16 06:15:49;;;;;;;14.18;8.40;;;;;;;;;;4916661;29;20079;-48
2021/11/16 06:18:15;;;;;;;14.82;9.05;;;15.40;74.60;;;;;;4916941;29;20041;-49
2021/11/16 06:20:43;;;;;;;16.45;9.88;;;15.40;77.40;;;;;;4916675;29;20039;-46
2021/11/16 06:23:11;;;;;;;15.15;9.48;;;;;;;;;;4916784;29;20027;-47
2021/11/16 06:25:37;;;;;;;16.10;9.40;;;;;;;;;;4916570;29;20035;-47
2021/11/16 06:28:03;;;;;;;16.38;9.45;;;;;;;;;;4916492;29;20035;-47
2021/11/16 06:30:29;;;;;;;16.63;10.07;;;;;;;;;;4916659;29;20055;-47
2021/11/16 06:32:55;;;;;;;17.52;10.68;;;;;;;;;;4916384;29;20027;-47
2021/11/16 06:35:21;;;;;;;16.73;10.23;;;;;;;;;;4916368;29;20448;-48
2021/11/16 06:37:48;;;;;;;14.82;8.98;;;15.50;77.70;;;;;;4916561;29;20032;-49
2021/11/16 06:40:16;;;;;;;16.83;10.07;;;15.60;78.60;;;;;;4916272;29;20055;-47
2021/11/16 06:42:42;;;;;;;16.63;9.60;;;;;;;;;;4916275;29;20109;-46
2021/11/16 06:45:08;;;;;;;18.17;10.52;;;;;;;;;;4916142;29;20044;-48
2021/11/16 06:47:34;;;;;;;17.33;10.25;;;;;;;;;;4916400;29;20042;-48
2021/11/16 06:50:00;;;;;;;20.50;10.68;;;;;;;;;;4915977;29;20419;-48
2021/11/16 06:52:30;;;;;;;16.55;10.18;;;;;;;;;;4916064;29;20479;-48
2021/11/16 06:54:56;;;;;;;22.38;11.40;;;;;;;;;;4916007;29;20027;-48
2021/11/16 06:57:26;;;;;;;17.50;10.32;;;;;;;;;;4916200;29;20120;-50
2021/11/16 06:59:52;;;;;;;;;;;15.60;73.10;;;;;;4916711;29;20036;-48
2021/11/16 07:02:25;;;;;;;18.73;10.18;;;15.70;77.70;;;;;;4916133;29;19907;-48
2021/11/16 07:04:51;;;;;;;22.48;9.80;;;;;;;;;;4916287;29;20032;-51
2021/11/16 07:07:17;;;;;;;17.10;10.60;;;;;;;;;;4915854;29;20032;-52
2021/11/16 07:09:43;;;;;;;21.98;11.10;;;15.70;77.30;;;;;;4915909;29;20078;-50
2021/11/16 07:12:17;;;;;;;17.98;9.88;;;15.50;78.80;;;;;;4915722;29;20123;-50
2021/11/16 07:14:44;;;;;;;18.23;10.75;;;;;;;;;;4921074;29;20090;-51
2021/11/16 07:17:12;;;;;;;19.60;10.93;;;15.60;79.20;;;;;;4922374;29;20083;-50
2021/11/16 07:19:38;;;;;;;22.45;11.05;;;;;;;;;;4922251;29;20483;-50
2021/11/16 07:22:11;;;;;;;20.30;11.88;;;15.60;79.20;;;;;;4922400;29;20043;-49
2021/11/16 07:24:43;;;;;;;22.50;11.63;;;15.70;73.40;;;;;;4922198;29;20024;-48
2021/11/16 07:27:09;;;;;;;21.63;11.55;;;;;;;;;;4921952;29;20044;-46
2021/11/16 07:29:35;;;;;;;20.83;11.13;;;;;;;;;;4922228;29;20052;-45
2021/11/16 07:32:02;;;;;;;22.80;12.05;;;;;;;;;;4922099;29;20024;-46
2021/11/16 07:34:30;;;;;;;22.92;12.10;;;15.50;78.60;;;;;;4922020;29;20060;-46
2021/11/16 07:36:58;;;;;;;22.40;11.70;;;15.50;78.60;;;;;;4922242;29;20028;-46
2021/11/16 07:39:27;;;;;;;21.88;11.80;;;15.50;78.60;;;;;;4922186;29;20024;-46
2021/11/16 07:42:06;;;;;;;23.95;12.00;;;15.50;78.60;;;;;;4922082;29;20035;-45
2021/11/16 07:44:32;;;;;;;20.17;12.25;;;15.50;78.50;;;;;;4922233;29;20067;-45
2021/11/16 07:46:58;;;;;;;20.85;12.65;;;;;;;;;;4922149;29;20032;-45
2021/11/16 07:49:25;;;;;;;22.73;11.43;;;15.50;78.20;;;;;;4922016;29;20107;-45
2021/11/16 07:51:54;;;;;;;18.08;10.90;;;15.50;79.40;;;;;;4922113;29;20071;-45
2021/11/16 07:54:30;;;;;;;20.95;11.07;;;15.50;74.00;;;;;;4921712;29;20459;-45
2021/11/16 07:57:03;;;;;;;22.15;11.73;;;15.40;74.10;;;;;;4922352;29;20035;-46
2021/11/16 07:59:30;;;;;;;22.42;12.65;;;;;;;;;;4922026;29;20200;-45
2021/11/16 08:02:07;;;;;;;23.42;12.07;;;;;;;;;;4922049;29;20095;-46
2021/11/16 08:04:49;;;;;;;19.95;10.90;;;;;;;;;;4921760;29;20028;-45
2021/11/16 08:07:33;;;;;;;22.02;12.15;;;;;;;;;;4921906;29;20455;-46
2021/11/16 08:10:08;;;;;;;21.08;11.07;;;15.20;73.80;;;;;;4921862;29;20058;-45
2021/11/16 08:12:39;;;;;;;19.42;11.63;;;;;;;;;;4921469;29;20040;-46
2021/11/16 08:15:09;;;;;;;18.75;10.25;;;15.30;79.20;;;;;;4921880;29;20032;-46
2021/11/16 08:17:36;;;;;;;21.15;11.18;;;;;;;;;;4921789;29;20395;-45
2021/11/16 08:20:14;;;;;;;20.38;11.63;;;15.30;79.30;;;;;;4921584;29;20084;-45
2021/11/16 08:22:40;;;;;;;21.13;11.15;;;;;;;;;;4921793;29;20031;-45
2021/11/16 08:25:08;;;;;;;21.25;11.55;;;15.30;79.30;;;;;;4919586;29;20036;-45
2021/11/16 08:27:36;;;;;;;20.88;11.13;;;15.30;79.30;;;;;;4918588;29;20031;-46
2021/11/16 08:30:09;;;;;;;18.90;10.85;;;15.30;74.20;;;;;;4918495;29;20040;-46
2021/11/16 08:32:39;;;;;;;20.67;11.85;;;15.30;79.40;;;;;;4918424;29;20067;-46
2021/11/16 08:35:15;;;;;;;;;;;15.50;80.20;;;;;;4919251;29;20063;-47
2021/11/16 08:37:41;;;;;;;19.02;11.75;;;;;;;;;;4918679;29;20289;-45
2021/11/16 08:40:15;;;;;;;19.67;10.90;;;15.10;73.90;;;;;;4918416;29;20149;-44
2021/11/16 08:42:45;;;;;;;23.33;11.60;;;15.30;79.40;;;;;;4918348;29;20032;-45
2021/11/16 08:45:15;;;;;;;22.65;11.98;;;15.30;79.70;;;;;;4918633;29;20027;-44
2021/11/16 08:47:45;;;;;;;20.60;11.80;;;15.30;79.60;;;;;;4918443;29;20016;-46
2021/11/16 08:50:21;;;;;;;21.10;11.43;;;15.20;74.50;;;;;;4918538;29;20443;-44
2021/11/16 08:52:47;;;;;;;18.10;10.75;;;15.30;77.10;;;;;;4918469;29;20396;-44
2021/11/16 08:55:19;;;;;;;18.92;10.90;;;15.30;79.60;;;;;;4918484;29;20432;-45
2021/11/16 08:57:48;;;;;;;23.88;12.40;;;15.20;79.50;;;;;;4918097;29;20035;-45
2021/11/16 09:00:26;;;;;;;20.73;11.38;;;15.20;79.80;;;;;;4918366;29;20145;-45
2021/11/16 09:03:05;;;;;;;22.02;11.05;;;15.20;79.50;;;;;;4917974;29;20024;-45
2021/11/16 09:05:33;;;;;;;19.60;11.63;;;15.20;79.90;;;;;;4918171;29;20043;-45
2021/11/16 09:08:02;;;;;;;22.35;12.32;;;;;;;;;;4917957;29;20025;-46
2021/11/16 09:10:39;;;;;;;23.48;12.38;;;15.20;74.60;;;;;;4918080;29;20083;-44
2021/11/16 09:13:08;;;;;;;19.83;11.00;;;15.10;80.00;;;;;;4917769;29;20114;-44
2021/11/16 09:15:47;;;;;;;19.00;11.13;;;15.20;74.80;;;;;;4917732;29;20503;-45
2021/11/16 09:18:19;;;;;;;20.60;10.18;;;15.10;74.80;;;;;;4918093;29;20035;-45
2021/11/16 09:21:07;;;;;;;21.63;11.93;;;15.20;81.60;;;;;;4917544;29;20032;-45
2021/11/16 09:23:33;;;;;;;22.40;11.55;;;;;;;;;;4917893;29;20107;-45
2021/11/16 09:26:40;;;;;;;21.13;11.52;;;15.40;75.70;;;;;;4917545;29;20550;-44
2021/11/16 09:29:20;;;;;;;21.35;11.40;;;15.40;75.20;;;;;;4917356;29;20047;-45
2021/11/16 09:32:05;;;;;;;21.00;11.65;;;15.50;75.40;;;;;;4917332;29;20070;-44
2021/11/16 09:34:36;;;;;;;20.27;10.85;;;15.50;75.50;;;;;;4917467;29;20059;-45
2021/11/16 09:37:05;;;;;;;22.52;11.50;;;15.60;80.70;;;;;;4917193;29;20495;-45
2021/11/16 09:39:47;;;;;;;24.48;10.95;;;15.60;81.00;;;;;;4917208;29;20111;-45
2021/11/16 09:42:15;;;;;;;18.42;10.68;;;15.60;80.80;;;;;;4917548;29;20028;-45
2021/11/16 09:44:43;;;;;;;18.33;10.75;;;;;;;;;;4900100;29;20039;-45
2021/11/16 09:47:22;;;;;;;20.23;11.38;;;15.60;75.20;;;;;;4917426;29;20182;-44
2021/11/16 09:50:15;;;;;;;22.35;11.77;;;15.60;80.90;;;;;;4917268;29;20439;-44
2021/11/16 09:52:52;;;;;;;19.85;10.65;;;15.60;81.00;;;;;;4917439;29;20025;-47
2021/11/16 09:55:30;;;;;;;19.33;11.10;;;15.60;75.20;;;;;;4917308;29;20079;-46
2021/11/16 09:57:59;;;;;;;17.40;10.15;;;15.60;80.60;;;;;;4917084;29;20088;-47
2021/11/16 10:00:26;;;;;;;19.35;10.50;;;;;;;;;;4917188;29;20051;-46
2021/11/16 10:02:59;;;;;;;19.48;10.70;;;15.50;80.00;;;;;;4916703;29;20032;-45
2021/11/16 10:05:26;;;;;;;17.30;10.07;;;;;;;;;;4916938;29;20114;-46
2021/11/16 10:07:57;;;;;;;17.15;10.38;;;15.40;79.80;;;;;;4916679;29;20028;-45
2021/11/16 10:10:26;;;;;;;22.27;11.43;;;15.40;80.10;;;;;;4916755;29;20028;-45
2021/11/16 10:12:55;;;;;;;19.17;10.68;;;15.40;80.20;;;;;;4916528;29;20040;-45
2021/11/16 10:15:23;;;;;;;18.80;10.40;;;15.40;80.30;;;;;;4916620;29;20047;-45
2021/11/16 10:17:51;;;;;;;21.50;10.45;;;15.40;80.60;;;;;;4916611;29;20035;-45
2021/11/16 10:20:20;;;;;;;18.50;10.70;;;15.30;80.20;;;;;;4899547;29;20024;-45
2021/11/16 10:22:51;;;;;;;21.70;11.85;;;15.40;75.60;;;;;;4916740;29;20491;-44
2021/11/16 10:25:22;;;;;;;17.48;10.38;;;15.40;81.00;;;;;;4916693;29;20028;-44
2021/11/16 10:27:50;;;;;;;19.45;10.63;;;15.40;80.40;;;;;;4916500;29;20372;-44
2021/11/16 10:30:22;;;;;;;21.30;11.48;;;15.30;80.80;;;;;;4916631;29;20172;-46
2021/11/16 10:33:15;;;;;;;19.00;10.20;;;15.30;80.80;;;;;;4916663;29;20391;-45
2021/11/16 10:35:43;;;;;;;19.95;11.20;;;15.40;80.80;;;;;;4916671;29;20107;-45
2021/11/16 10:38:13;;;;;;;19.00;10.60;;;15.30;81.00;;;;;;4916156;29;20028;-44
2021/11/16 10:40:39;;;;;;;;;;;15.40;81.50;;;;;;4916730;29;20472;-45
2021/11/16 10:43:06;;;;;;;17.67;9.98;;;15.30;81.20;;;;;;4916396;29;19918;-45
2021/11/16 10:45:35;;;;;;;18.38;11.05;;;15.30;81.10;;;;;;4916518;29;20102;-45
2021/11/16 10:48:04;;;;;;;19.42;10.73;;;15.20;81.40;;;;;;4915996;29;20145;-45
2021/11/16 10:50:31;;;;;;;16.63;10.02;;;15.30;79.50;;;;;;4916089;29;20533;-45
2021/11/16 10:53:09;;;;;;;20.73;11.27;;;15.30;76.10;;;;;;4916092;29;20056;-46
2021/11/16 10:55:53;;;;;;;19.02;11.20;;;15.30;75.80;;;;;;4916334;29;20032;-44
2021/11/16 10:58:27;;;;;;;19.80;11.75;;;15.30;75.50;;;;;;4916350;29;20107;-45
2021/11/16 11:00:56;;;;;;;18.92;10.15;;;15.20;82.10;;;;;;4916248;29;20024;-45
2021/11/16 11:03:36;;;;;;;19.02;10.82;;;15.30;76.60;;;;;;4916163;29;20041;-45
2021/11/16 11:06:20;;;;;;;20.83;10.80;;;15.20;76.30;;;;;;4916291;29;20052;-45
2021/11/16 11:08:54;;;;;;;18.92;10.57;;;15.30;76.40;;;;;;4915901;29;20475;-45
2021/11/16 11:11:32;;;;;;;20.40;11.00;;;15.50;76.20;;;;;;4915890;29;20052;-45
2021/11/16 11:14:17;;;;;;;19.58;11.30;;;15.50;75.80;;;;;;4915707;29;20032;-45
2021/11/16 11:16:54;;;;;;;19.90;11.02;;;15.50;75.90;;;;;;4916107;29;20020;-45
2021/11/16 11:19:35;;;;;;;19.27;10.70;;;15.50;81.00;;;;;;4916092;29;20028;-45
2021/11/16 11:22:10;;;;;;;18.48;10.40;;;;;;;;;;4916088;29;20099;-45
2021/11/16 11:24:41;;;;;;;19.38;10.25;;;15.70;80.70;;;;;;4916094;29;20047;-44
2021/11/16 11:27:31;;;;;;;19.75;10.48;;;15.50;79.50;;;;;;4915718;29;20020;-44
2021/11/16 11:29:56;;;;;;;18.90;10.88;;;;;;;;;;4915321;29;20411;-45
2021/11/16 11:32:22;;;;;;;17.25;10.23;;;;;;;;;;4915832;29;20042;-44
2021/11/16 11:34:59;;;;;;;17.90;10.90;;;15.50;74.90;;;;;;4915932;29;20024;-44
2021/11/16 11:37:26;;;;;;;18.70;10.07;;;15.60;80.10;;;;;;4915836;29;20092;-44
2021/11/16 11:40:03;;;;;;;20.15;10.77;;;15.70;75.10;;;;;;4915900;29;20020;-45
2021/11/16 11:42:33;;;;;;;17.25;9.73;;;15.60;80.90;;;;;;4915858;29;20024;-46
2021/11/16 11:47:50;;;;;;;18.23;9.68;;;15.50;81.20;;;;;;4915809;29;20036;-48
2021/11/16 11:50:30;;;;;;;17.58;9.98;;;15.60;76.80;;;;;;4915561;29;20051;-47
2021/11/16 11:52:58;;;;;;;23.85;10.98;;;15.50;81.70;;;;;;4915891;29;20028;-46
2021/11/16 11:55:25;;;;;;;23.52;11.13;;;;;;;;;;4915695;29;20357;-46
2021/11/16 11:57:51;;;;;;;20.98;10.65;;;;;;;;;;4915774;29;20085;-46
2021/11/16 12:00:17;;;;;;;18.48;10.45;;;;;;;;;;4915859;29;20035;-46
2021/11/16 12:02:45;;;;;;;16.92;9.88;;;15.50;80.80;;;;;;4919003;29;20036;-46
2021/11/16 12:05:11;;;;;;;18.38;10.07;;;;;;;;;;4918916;29;20035;-46
2021/11/16 12:07:37;;;;;;;18.33;11.13;;;;;;;;;;4918785;29;20024;-46
2021/11/16 12:10:03;;;;;;;17.55;11.10;;;;;;;;;;4919049;29;20040;-47
2021/11/16 12:12:29;;;;;;;20.20;10.77;;;;;;;;;;4918558;29;20116;-46
2021/11/16 12:15:42;;;;;;;17.98;10.45;;;15.50;77.30;;;;;;4918826;29;20115;-47
2021/11/16 12:18:08;;;;;;;17.35;10.25;;;15.40;81.80;;;;;;4909834;29;20044;-46
2021/11/16 12:20:35;;;;;;;20.67;10.13;;;;;;;;;;4918934;29;20031;-47
2021/11/16 12:23:01;;;;;;;20.77;11.25;;;;;;;;;;4918770;29;20405;-47
2021/11/16 12:25:27;;;;;;;17.90;10.55;;;;;;;;;;4918409;29;20043;-46
2021/11/16 12:27:53;;;;;;;16.15;9.93;;;;;;;;;;4918809;29;20032;-46
2021/11/16 12:30:20;;;;;;;18.17;10.88;;;15.50;83.00;;;;;;4918666;29;20051;-47
2021/11/16 12:32:51;;;;;;;19.92;11.55;;;15.50;76.50;;;;;;4918251;29;20088;-48
2021/11/16 12:35:19;;;;;;;15.60;9.55;;;15.50;81.80;;;;;;4918369;29;20032;-46
2021/11/16 12:37:54;;;;;;;18.83;10.73;;;15.50;81.70;;;;;;4918503;29;20024;-46
2021/11/16 12:40:22;;;;;;;18.17;9.45;;;15.50;76.30;;;;;;4918580;29;20071;-46
2021/11/16 12:43:06;;;;;;;17.10;9.90;;;15.50;75.80;;;;;;4918431;29;20364;-46
2021/11/16 12:45:48;;;;;;;16.45;9.75;;;15.60;76.20;;;;;;4918160;29;20028;-46
2021/11/16 12:48:17;;;;;;;16.15;9.05;;;15.50;81.40;;;;;;4918161;29;20039;-46
2021/11/16 12:51:09;;;;;;;17.33;10.00;;;15.50;76.30;;;;;;4918328;29;20036;-47
2021/11/16 12:54:04;;;;;;;16.58;10.23;;;15.50;76.40;;;;;;4918223;29;20431;-46
2021/11/16 12:56:53;;;;;;;15.60;9.18;;;15.50;82.00;;;;;;4918435;29;20032;-46
2021/11/16 12:59:19;;;;;;;16.60;10.02;;;;;;;;;;4889513;29;20070;-47
2021/11/16 13:01:50;;;;;;;18.08;9.25;;;15.40;76.90;;;;;;4918396;29;20463;-47
2021/11/16 13:04:37;;;;;;;18.40;9.57;;;15.50;82.60;;;;;;4918148;29;20024;-47
2021/11/16 13:07:20;;;;;;;15.85;9.35;;;15.60;77.00;;;;;;4917839;29;20195;-46
2021/11/16 13:09:51;;;;;;;16.10;9.98;;;15.70;82.30;;;;;;4917620;29;20167;-47
2021/11/16 13:12:38;;;;;;;18.73;9.95;;;15.80;76.70;;;;;;4917206;29;20288;-46
2021/11/16 13:15:08;;;;;;;17.65;9.93;;;15.90;76.80;;;;;;4917829;29;20036;-44
2021/11/16 13:17:59;;;;;;;16.52;9.68;;;16.00;76.50;;;;;;4917512;29;20218;-44
2021/11/16 13:20:38;;;;;;;16.67;9.98;;;16.10;75.90;;;;;;4917565;29;20035;-44
2021/11/16 13:23:14;;;;;;;16.27;9.30;;;16.20;75.80;;;;;;4917578;29;20028;-44
2021/11/16 13:25:40;;;;;;;19.52;10.00;;;;;;;;;;4917728;29;20020;-44
2021/11/16 13:28:14;;;;;;;16.63;9.23;;;16.40;75.70;;;;;;4917637;29;20497;-44
2021/11/16 13:30:41;;;;;;;17.42;10.05;;;;;;;;;;4917327;29;20092;-44